Time;durP1;ratioP1;P1;durP2;ratioP2;P2;SDS_P1;SDS_P2;PMS_P1;PMS_P2;Temp;Humidity;BMP_temperature;BMP_pressure;BME280_temperature;BME280_humidity;BME280_pressure;Samples;Min_cycle;Max_cycle;Signal;HPM_P1;HPM_P2
2022/12/12 00:00:08;;;;;;;50.28;25.02;;;2.70;99.90;;;;;;4974867;28;20098;-82
2022/12/12 00:02:37;;;;;;;43.65;23.27;;;2.80;99.90;;;;;;4975797;28;20023;-83
2022/12/12 00:05:05;;;;;;;41.63;25.58;;;2.80;99.90;;;;;;4973362;28;20501;-83
2022/12/12 00:07:30;;;;;;;42.75;23.00;;;2.80;99.90;;;;;;4974448;28;20030;-81
2022/12/12 00:09:56;;;;;;;41.05;22.75;;;2.80;99.90;;;;;;4974351;28;20035;-82
2022/12/12 00:12:22;;;;;;;47.20;24.35;;;2.80;99.90;;;;;;4974621;28;20035;-82
2022/12/12 00:14:48;;;;;;;42.55;20.17;;;2.80;99.90;;;;;;4975589;28;20031;-82
2022/12/12 00:17:15;;;;;;;38.90;23.42;;;2.90;99.90;;;;;;4974921;28;20130;-82
2022/12/12 00:19:42;;;;;;;41.55;22.42;;;2.90;99.90;;;;;;4984286;28;20089;-82
2022/12/12 00:22:08;;;;;;;44.72;21.58;;;2.90;99.90;;;;;;4977607;28;20026;-81
2022/12/12 00:24:34;;;;;;;37.40;20.63;;;2.90;99.90;;;;;;4973963;28;20019;-82
2022/12/12 00:27:00;;;;;;;22.88;13.15;;;2.90;99.90;;;;;;4973203;28;20484;-81
2022/12/12 00:29:26;;;;;;;38.33;20.80;;;2.90;99.90;;;;;;4984489;28;20026;-84
2022/12/12 00:31:52;;;;;;;34.15;18.30;;;3.00;99.90;;;;;;4974463;28;20019;-85
2022/12/12 00:34:17;;;;;;;43.08;21.67;;;3.00;99.90;;;;;;4972853;28;20098;-84
2022/12/12 00:36:43;;;;;;;36.72;21.50;;;3.00;99.90;;;;;;4973031;28;20039;-84
2022/12/12 00:39:09;;;;;;;37.92;20.60;;;3.00;99.90;;;;;;4974886;28;20054;-82
2022/12/12 00:41:36;;;;;;;30.13;16.02;;;3.00;99.90;;;;;;4975864;28;20047;-83
2022/12/12 00:44:02;;;;;;;33.90;21.50;;;3.00;99.90;;;;;;4974977;28;20138;-82
2022/12/12 00:46:28;;;;;;;40.50;22.03;;;3.00;99.90;;;;;;4974010;28;20029;-83
2022/12/12 00:48:57;;;;;;;34.63;21.52;;;3.00;99.90;;;;;;4975616;28;20497;-83
2022/12/12 00:51:24;;;;;;;37.70;20.25;;;2.90;99.90;;;;;;4973597;28;20081;-81
2022/12/12 00:53:50;;;;;;;;;;;2.90;99.90;;;;;;4969352;28;20095;-83
2022/12/12 00:56:18;;;;;;;29.20;16.17;;;2.90;99.90;;;;;;4975706;28;19906;-83
2022/12/12 00:58:44;;;;;;;36.85;17.02;;;2.90;99.90;;;;;;4987274;28;20011;-82
2022/12/12 01:01:13;;;;;;;33.63;18.08;;;2.90;99.90;;;;;;4974502;28;20050;-82
2022/12/12 01:03:40;;;;;;;33.13;18.80;;;2.90;99.90;;;;;;4970551;28;20026;-82
2022/12/12 01:06:07;;;;;;;35.03;17.05;;;2.90;99.90;;;;;;4966848;28;20030;-82
2022/12/12 01:08:33;;;;;;;19.77;9.70;;;2.90;99.90;;;;;;4973374;28;20427;-83
2022/12/12 01:10:59;;;;;;;35.10;17.73;;;2.80;99.90;;;;;;4973137;28;20057;-83
2022/12/12 01:13:25;;;;;;;15.45;12.00;;;2.80;99.90;;;;;;4962251;28;20035;-83
2022/12/12 01:15:51;;;;;;;27.15;15.93;;;2.80;99.90;;;;;;4971122;28;20034;-83
2022/12/12 01:18:18;;;;;;;31.80;16.20;;;2.80;99.90;;;;;;4973487;28;20023;-83
2022/12/12 01:20:44;;;;;;;19.77;13.67;;;2.80;99.90;;;;;;4973123;28;20057;-84
2022/12/12 01:23:11;;;;;;;31.50;17.80;;;2.80;99.90;;;;;;4971786;28;20265;-83
2022/12/12 01:25:37;;;;;;;28.30;17.65;;;2.80;99.90;;;;;;4973572;28;20027;-83
2022/12/12 01:28:03;;;;;;;30.05;18.95;;;2.80;99.90;;;;;;4978490;28;20072;-83
2022/12/12 01:30:29;;;;;;;29.13;18.05;;;2.80;99.90;;;;;;4977851;28;20066;-83
2022/12/12 01:32:55;;;;;;;27.90;18.35;;;2.80;99.90;;;;;;4973878;28;20493;-80
2022/12/12 01:35:22;;;;;;;28.02;16.08;;;2.80;99.90;;;;;;4980731;28;20048;-81
2022/12/12 01:37:48;;;;;;;26.90;15.55;;;2.90;99.90;;;;;;4980595;28;20033;-82
2022/12/12 01:40:21;;;;;;;27.25;15.40;;;2.80;99.90;;;;;;4973249;28;20126;-81
2022/12/12 01:42:47;;;;;;;25.80;15.52;;;2.90;99.90;;;;;;4969230;28;20440;-80
2022/12/12 01:46:10;;;;;;;24.38;14.40;;;2.80;99.90;;;;;;4988785;28;20046;-80
2022/12/12 01:48:44;;;;;;;30.88;16.25;;;2.80;99.90;;;;;;4937385;29;20047;-81
2022/12/12 01:51:16;;;;;;;23.77;13.18;;;2.80;99.90;;;;;;4933896;29;20093;-82
2022/12/12 01:53:43;;;;;;;26.08;13.85;;;2.80;99.90;;;;;;4932259;29;20036;-83
2022/12/12 01:56:13;;;;;;;29.20;16.23;;;2.80;99.90;;;;;;4926810;29;20060;-83
2022/12/12 01:58:45;;;;;;;28.58;14.90;;;2.80;99.90;;;;;;4931985;29;20042;-83
2022/12/12 02:01:11;;;;;;;36.08;15.85;;;2.80;99.90;;;;;;4931930;29;20040;-83
2022/12/12 02:03:40;;;;;;;22.35;13.18;;;2.80;99.90;;;;;;4931981;29;20035;-83
2022/12/12 02:06:10;;;;;;;23.83;14.35;;;2.80;99.90;;;;;;4931022;28;20116;-82
2022/12/12 02:08:36;;;;;;;22.83;13.88;;;2.80;99.90;;;;;;4933250;29;20469;-82
2022/12/12 02:11:02;;;;;;;26.83;14.45;;;2.90;99.90;;;;;;4932731;29;20023;-82
2022/12/12 02:13:31;;;;;;;24.58;14.15;;;2.90;99.90;;;;;;4935534;29;20099;-82
2022/12/12 02:16:14;;;;;;;17.15;11.00;;;2.90;99.90;;;;;;4935893;29;20028;-84
2022/12/12 02:18:45;;;;;;;26.65;12.85;;;2.90;99.90;;;;;;4947168;28;20035;-82
2022/12/12 02:21:30;;;;;;;26.15;13.88;;;2.90;99.90;;;;;;4985748;28;20387;-81
2022/12/12 02:24:16;;;;;;;19.05;11.25;;;2.90;99.90;;;;;;4995704;28;20061;-83
2022/12/12 02:26:52;;;;;;;16.80;10.60;;;2.90;99.90;;;;;;4956038;28;20472;-82
2022/12/12 02:29:29;;;;;;;21.23;12.45;;;2.90;99.90;;;;;;4969063;28;20049;-81
2022/12/12 02:32:24;;;;;;;24.45;14.10;;;2.90;99.90;;;;;;4996133;28;20448;-81
2022/12/12 02:35:19;;;;;;;20.40;12.85;;;2.90;99.90;;;;;;4988031;28;20387;-80
2022/12/12 02:38:02;;;;;;;20.95;11.90;;;2.90;99.90;;;;;;4992712;28;20026;-82
2022/12/12 02:40:42;;;;;;;15.82;8.88;;;2.90;99.90;;;;;;4988908;28;20088;-81
2022/12/12 02:43:44;;;;;;;22.40;13.10;;;2.90;99.90;;;;;;4995456;28;20050;-82
2022/12/12 02:46:39;;;;;;;18.40;12.45;;;2.90;99.90;;;;;;4982588;28;20050;-81
2022/12/12 02:49:14;;;;;;;24.73;13.73;;;2.90;99.90;;;;;;4979279;28;20550;-81
2022/12/12 02:51:41;;;;;;;17.63;10.38;;;2.90;99.90;;;;;;4995145;28;20104;-81
2022/12/12 02:54:13;;;;;;;25.83;12.95;;;2.90;99.90;;;;;;4995210;28;20030;-82
2022/12/12 02:56:45;;;;;;;18.60;10.73;;;2.90;99.90;;;;;;4995359;28;20032;-81
2022/12/12 02:59:16;;;;;;;16.25;10.18;;;3.00;99.90;;;;;;4978314;28;20081;-84
2022/12/12 03:01:54;;;;;;;25.27;13.98;;;2.90;99.90;;;;;;4979332;28;20018;-81
2022/12/12 03:07:51;;;;;;;19.65;11.20;;;3.00;99.90;;;;;;4995139;28;20049;-82
2022/12/12 03:10:31;;;;;;;16.52;8.80;;;3.00;99.90;;;;;;4934016;28;20089;-83
2022/12/12 03:13:08;;;;;;;14.38;9.82;;;3.00;99.90;;;;;;4986465;28;20030;-83
2022/12/12 03:16:12;;;;;;;19.38;11.38;;;3.00;99.90;;;;;;4986550;28;20030;-84
2022/12/12 03:18:59;;;;;;;12.48;8.35;;;3.00;99.90;;;;;;5006658;28;20116;-83
2022/12/12 03:21:45;;;;;;;19.92;11.32;;;3.00;99.90;;;;;;4986731;28;20026;-82
2022/12/12 03:24:23;;;;;;;24.10;10.95;;;3.00;99.90;;;;;;4991705;28;20033;-84
2022/12/12 03:27:05;;;;;;;16.98;10.45;;;3.00;99.90;;;;;;4978328;28;20108;-84
2022/12/12 03:29:39;;;;;;;15.75;10.63;;;3.10;99.90;;;;;;4990161;28;20104;-84
2022/12/12 03:32:14;;;;;;;15.88;10.95;;;3.10;99.90;;;;;;4994782;28;20086;-84
2022/12/12 03:34:48;;;;;;;19.70;10.93;;;3.10;99.90;;;;;;4994941;28;20026;-84
2022/12/12 03:37:32;;;;;;;15.68;10.30;;;3.10;99.90;;;;;;4996023;28;20542;-83
2022/12/12 03:40:12;;;;;;;16.95;10.32;;;3.10;99.90;;;;;;4989433;28;20125;-83
2022/12/12 03:42:38;;;;;;;17.38;10.10;;;3.10;99.90;;;;;;4997205;28;20027;-83
2022/12/12 03:45:13;;;;;;;15.70;8.98;;;3.10;99.90;;;;;;4978399;28;20046;-83
2022/12/12 03:47:53;;;;;;;19.00;12.27;;;3.10;99.90;;;;;;4991551;28;20057;-83
2022/12/12 03:50:28;;;;;;;14.77;9.18;;;3.20;99.90;;;;;;4977525;28;20488;-84
2022/12/12 03:53:02;;;;;;;16.30;10.70;;;3.10;99.90;;;;;;4994712;28;20033;-84
2022/12/12 03:55:43;;;;;;;23.23;11.65;;;3.20;99.90;;;;;;4994740;28;20026;-83
2022/12/12 03:58:27;;;;;;;16.00;9.68;;;3.20;99.90;;;;;;4977930;28;20033;-83
2022/12/12 04:00:56;;;;;;;13.10;9.13;;;3.20;99.90;;;;;;4984296;28;20357;-81
2022/12/12 04:04:13;;;;;;;16.08;9.25;;;3.10;99.90;;;;;;4998655;28;20023;-83
2022/12/12 04:06:53;;;;;;;13.75;8.38;;;3.10;99.90;;;;;;4937853;29;20038;-82
2022/12/12 04:15:38;;;;;;;16.33;8.43;;;3.20;99.90;;;;;;4934031;29;20054;-82
2022/12/12 04:18:18;;;;;;;15.80;9.70;;;3.20;99.90;;;;;;4930701;29;20032;-82
2022/12/12 04:24:09;;;;;;;16.95;9.70;;;3.10;99.90;;;;;;4934079;29;20079;-82
2022/12/12 04:26:44;;;;;;;21.42;9.80;;;3.20;99.90;;;;;;4925755;29;20094;-83
2022/12/12 04:29:44;;;;;;;16.08;9.68;;;3.20;99.90;;;;;;4918153;29;20562;-86
2022/12/12 04:32:21;;;;;;;16.73;10.68;;;3.10;99.90;;;;;;4934040;29;20049;-84
2022/12/12 04:34:47;;;;;;;14.15;9.70;;;3.20;99.90;;;;;;4933640;29;20385;-84
2022/12/12 04:37:17;;;;;;;18.58;10.45;;;3.20;99.90;;;;;;4957088;28;20124;-84
2022/12/12 04:39:46;;;;;;;13.95;9.80;;;3.20;99.90;;;;;;4976552;28;20160;-85
2022/12/12 04:42:16;;;;;;;13.45;8.98;;;3.20;99.90;;;;;;4984582;28;20114;-83
2022/12/12 04:44:45;;;;;;;14.25;9.13;;;3.20;99.90;;;;;;4995339;28;20142;-84
2022/12/12 04:47:13;;;;;;;13.57;8.45;;;3.20;99.90;;;;;;5009366;28;20041;-83
2022/12/12 04:49:42;;;;;;;16.60;11.38;;;3.20;99.90;;;;;;4997348;28;20032;-83
2022/12/12 04:52:12;;;;;;;19.83;10.27;;;3.20;99.90;;;;;;4994231;28;20045;-83
2022/12/12 04:54:50;;;;;;;16.92;10.57;;;3.20;99.90;;;;;;4994319;28;20026;-83
2022/12/12 04:57:23;;;;;;;12.52;9.05;;;3.20;99.90;;;;;;4987146;28;20046;-82
2022/12/12 04:59:49;;;;;;;17.02;10.48;;;3.30;99.90;;;;;;5006773;28;20053;-83
2022/12/12 05:02:29;;;;;;;18.88;11.02;;;3.20;99.90;;;;;;4999127;28;20443;-84
2022/12/12 05:04:57;;;;;;;17.25;9.85;;;3.30;99.90;;;;;;4999419;28;20018;-81
2022/12/12 05:07:37;;;;;;;18.55;10.88;;;3.30;99.90;;;;;;4993501;28;20022;-83
2022/12/12 05:10:15;;;;;;;17.17;9.93;;;3.30;99.90;;;;;;4992833;28;20458;-82
2022/12/12 05:12:49;;;;;;;17.73;10.48;;;3.30;99.90;;;;;;4979317;28;20018;-82
2022/12/12 05:15:17;;;;;;;17.30;9.75;;;3.30;99.90;;;;;;4992682;28;20488;-83
2022/12/12 05:18:05;;;;;;;13.15;7.53;;;3.20;99.90;;;;;;4992828;28;20376;-83
2022/12/12 05:20:31;;;;;;;15.75;11.32;;;3.30;99.90;;;;;;4992378;28;20088;-83
2022/12/12 05:22:57;;;;;;;17.60;9.18;;;3.20;99.90;;;;;;4992547;28;20022;-82
2022/12/12 05:25:23;;;;;;;15.68;9.32;;;3.30;99.90;;;;;;4992119;28;20022;-82
2022/12/12 05:27:49;;;;;;;18.63;10.23;;;3.30;99.90;;;;;;4997535;28;20045;-81
2022/12/12 05:30:15;;;;;;;10.55;8.18;;;3.20;99.90;;;;;;4992361;28;20403;-83
2022/12/12 05:32:40;;;;;;;17.20;8.70;;;3.20;99.90;;;;;;4993773;28;20022;-84
2022/12/12 05:35:07;;;;;;;13.35;9.05;;;3.30;99.90;;;;;;4994592;28;20066;-82
2022/12/12 05:37:33;;;;;;;15.40;9.57;;;3.30;99.90;;;;;;5002703;28;20018;-85
2022/12/12 05:39:59;;;;;;;15.60;9.60;;;3.30;99.90;;;;;;4993036;28;20476;-83
2022/12/12 05:42:25;;;;;;;12.30;8.55;;;3.30;99.90;;;;;;4971848;28;20110;-84
2022/12/12 05:45:06;;;;;;;13.73;10.07;;;3.30;99.90;;;;;;4984495;28;20046;-85
2022/12/12 05:47:32;;;;;;;14.40;10.18;;;3.30;99.90;;;;;;4988533;28;20089;-83
2022/12/12 05:49:58;;;;;;;12.57;7.93;;;3.30;99.90;;;;;;4993863;28;20022;-83
2022/12/12 05:52:24;;;;;;;14.75;7.65;;;3.30;99.90;;;;;;4993428;28;20400;-84
2022/12/12 05:54:50;;;;;;;15.65;9.77;;;3.30;99.90;;;;;;4992468;28;20026;-84
2022/12/12 05:57:17;;;;;;;15.20;9.60;;;3.30;99.90;;;;;;4978763;28;20033;-83
2022/12/12 05:59:45;;;;;;;;;;;3.30;99.90;;;;;;4974100;28;20042;-82
2022/12/12 06:02:12;;;;;;;19.58;11.40;;;3.30;99.90;;;;;;4993133;28;19940;-84
2022/12/12 06:04:38;;;;;;;15.52;8.43;;;3.30;99.90;;;;;;4992844;28;20038;-85
2022/12/12 06:07:04;;;;;;;16.92;8.75;;;3.30;99.90;;;;;;4992366;28;20029;-84
2022/12/12 06:09:30;;;;;;;13.85;9.63;;;3.30;99.90;;;;;;4992424;28;20024;-84
2022/12/12 06:11:57;;;;;;;15.98;9.43;;;3.30;99.90;;;;;;4993421;28;20042;-85
2022/12/12 06:14:23;;;;;;;15.45;10.45;;;3.20;99.90;;;;;;4986660;28;20022;-83
2022/12/12 06:16:52;;;;;;;13.57;7.88;;;3.30;99.90;;;;;;5005791;28;20175;-86
2022/12/12 06:19:19;;;;;;;12.48;8.50;;;3.30;99.90;;;;;;4992727;28;20043;-84
2022/12/12 06:21:45;;;;;;;14.23;8.10;;;3.30;99.90;;;;;;4974868;28;20421;-85
2022/12/12 06:24:11;;;;;;;15.95;9.30;;;3.30;99.90;;;;;;4993501;28;20386;-85
2022/12/12 06:26:37;;;;;;;14.50;9.30;;;3.30;99.90;;;;;;4967541;28;20023;-86
2022/12/12 06:29:06;;;;;;;13.85;9.65;;;3.30;99.90;;;;;;4974115;28;20034;-86
2022/12/12 06:31:31;;;;;;;16.85;10.75;;;3.30;99.90;;;;;;4994245;28;20038;-85
2022/12/12 06:33:57;;;;;;;13.95;9.25;;;3.30;99.90;;;;;;4980067;28;20018;-85
2022/12/12 06:36:24;;;;;;;18.00;9.50;;;3.30;99.90;;;;;;4998080;28;20019;-85
2022/12/12 06:39:01;;;;;;;15.10;9.35;;;3.30;99.90;;;;;;4978221;28;20053;-86
2022/12/12 06:41:30;;;;;;;0.45;0.45;;;3.30;99.90;;;;;;5012545;28;20078;-84
2022/12/12 06:43:56;;;;;;;0.00;0.00;;;3.30;99.90;;;;;;4978188;28;20050;-85
2022/12/12 06:46:25;;;;;;;0.13;0.13;;;3.30;99.90;;;;;;4971462;28;20463;-85
2022/12/12 06:48:54;;;;;;;0.10;0.10;;;3.30;99.90;;;;;;4972450;28;20031;-86
2022/12/12 06:51:24;;;;;;;0.35;0.35;;;3.30;99.90;;;;;;4972113;28;20034;-86
2022/12/12 06:53:52;;;;;;;0.63;0.63;;;3.30;99.90;;;;;;4971963;28;20429;-87
2022/12/12 06:56:23;;;;;;;1.00;1.00;;;3.30;99.90;;;;;;4957443;28;20032;-84
2022/12/12 06:58:49;;;;;;;0.22;0.22;;;3.30;99.90;;;;;;4973392;28;20050;-84
2022/12/12 07:01:18;;;;;;;1.10;1.10;;;3.30;99.90;;;;;;4975029;28;20031;-84
2022/12/12 07:03:44;;;;;;;0.15;0.15;;;3.30;99.90;;;;;;4978072;28;20082;-85
2022/12/12 07:06:10;;;;;;;0.30;0.30;;;3.40;99.90;;;;;;4987100;28;20126;-86
2022/12/12 07:08:40;;;;;;;0.10;0.10;;;3.30;99.90;;;;;;4994965;28;20018;-84
2022/12/12 07:11:25;;;;;;;0.20;0.20;;;3.30;99.90;;;;;;4988100;28;20026;-87
2022/12/12 07:13:58;;;;;;;0.10;0.10;;;3.30;99.90;;;;;;4974895;28;20061;-87
2022/12/12 07:16:26;;;;;;;0.00;0.00;;;3.30;99.90;;;;;;4974781;28;20034;-84
2022/12/12 07:18:52;;;;;;;0.10;0.10;;;3.30;99.90;;;;;;4975718;28;20030;-86
2022/12/12 07:21:23;;;;;;;0.10;0.10;;;3.30;99.90;;;;;;4976805;28;20524;-86
2022/12/12 07:23:57;;;;;;;1.55;1.55;;;3.30;99.90;;;;;;4976304;28;20031;-85
2022/12/12 07:26:23;;;;;;;0.05;0.05;;;3.30;99.90;;;;;;4975774;28;20101;-85
2022/12/12 07:28:50;;;;;;;0.43;0.10;;;3.30;99.90;;;;;;4976133;28;20027;-85
2022/12/12 07:31:19;;;;;;;0.87;0.87;;;3.20;99.90;;;;;;4976852;28;20089;-84
2022/12/12 07:33:45;;;;;;;0.95;0.95;;;3.30;99.90;;;;;;4975491;28;20085;-84
2022/12/12 07:36:15;;;;;;;3.13;2.92;;;3.30;99.90;;;;;;4977881;28;20053;-86
2022/12/12 07:38:41;;;;;;;2.72;2.53;;;3.30;99.90;;;;;;4977352;28;20476;-85
2022/12/12 07:41:19;;;;;;;0.95;0.95;;;3.30;99.90;;;;;;4977958;28;20103;-86
2022/12/12 07:43:45;;;;;;;0.10;0.10;;;3.30;99.90;;;;;;4986687;28;20029;-86
2022/12/12 07:46:15;;;;;;;1.50;1.45;;;3.30;99.90;;;;;;4982394;28;20446;-87
2022/12/12 07:48:41;;;;;;;0.45;0.45;;;3.30;99.90;;;;;;4998470;28;20018;-87
2022/12/12 07:51:08;;;;;;;0.10;0.10;;;3.30;99.90;;;;;;4997053;28;20034;-85
2022/12/12 07:53:34;;;;;;;0.25;0.25;;;3.40;99.90;;;;;;4996081;28;20025;-86
2022/12/12 07:56:02;;;;;;;1.17;1.15;;;3.40;99.90;;;;;;4992732;28;20031;-86
2022/12/12 07:58:28;;;;;;;0.80;0.80;;;3.30;99.90;;;;;;4990964;28;20069;-84
2022/12/12 08:00:54;;;;;;;0.40;0.40;;;3.30;99.90;;;;;;4985055;28;20201;-85
2022/12/12 08:03:20;;;;;;;6.00;2.17;;;3.30;99.90;;;;;;4995229;28;20464;-87
2022/12/12 08:05:46;;;;;;;1.10;0.95;;;3.30;99.90;;;;;;4995239;28;20033;-85
2022/12/12 08:08:12;;;;;;;0.63;0.63;;;3.30;99.90;;;;;;4994749;28;20018;-86
2022/12/12 08:10:39;;;;;;;0.10;0.10;;;3.40;99.90;;;;;;4993742;28;20026;-83
2022/12/12 08:13:05;;;;;;;0.45;0.45;;;3.30;99.90;;;;;;4994198;28;20058;-82
2022/12/12 08:15:31;;;;;;;1.10;1.10;;;3.40;99.90;;;;;;4994606;28;20051;-83
2022/12/12 08:17:57;;;;;;;0.30;0.30;;;3.40;99.90;;;;;;4994612;28;20023;-84
2022/12/12 08:20:23;;;;;;;1.65;1.55;;;3.40;99.90;;;;;;4994162;28;20045;-85
2022/12/12 08:22:49;;;;;;;1.92;1.77;;;3.40;99.90;;;;;;4980844;28;20025;-85
2022/12/12 08:25:14;;;;;;;0.43;0.43;;;3.40;99.90;;;;;;5010084;28;20026;-85
2022/12/12 08:27:40;;;;;;;0.20;0.20;;;3.40;99.90;;;;;;4994973;28;20767;-84
2022/12/12 08:30:07;;;;;;;0.70;0.70;;;3.40;99.90;;;;;;4994768;28;20045;-84
2022/12/12 08:32:33;;;;;;;0.30;0.30;;;3.40;99.90;;;;;;4996534;28;20168;-84
2022/12/12 08:34:59;;;;;;;1.02;1.02;;;3.40;99.90;;;;;;4976573;28;20117;-84
2022/12/12 08:37:25;;;;;;;7.47;1.67;;;3.40;99.90;;;;;;4994123;28;20018;-87
2022/12/12 08:39:51;;;;;;;1.08;1.08;;;3.40;99.90;;;;;;4976141;28;20491;-84
2022/12/12 08:42:17;;;;;;;0.30;0.30;;;3.40;99.90;;;;;;4976725;28;20117;-84
2022/12/12 08:44:43;;;;;;;0.30;0.30;;;3.40;99.90;;;;;;4993696;28;20129;-86
2022/12/12 08:47:09;;;;;;;0.75;0.75;;;3.40;99.90;;;;;;4994321;28;20385;-84
2022/12/12 08:49:35;;;;;;;2.00;1.85;;;3.50;99.90;;;;;;4993961;28;20037;-85
2022/12/12 08:52:04;;;;;;;0.10;0.10;;;3.50;99.90;;;;;;4994653;28;20178;-85
2022/12/12 08:54:30;;;;;;;0.10;0.10;;;3.50;99.90;;;;;;4976463;28;20561;-83
2022/12/12 08:56:56;;;;;;;0.38;0.38;;;3.40;99.90;;;;;;4980043;28;20030;-84
2022/12/12 08:59:22;;;;;;;1.98;1.85;;;3.40;99.90;;;;;;4987296;28;20088;-83
2022/12/12 09:01:48;;;;;;;0.32;0.32;;;3.40;99.90;;;;;;4981655;28;20023;-84
2022/12/12 09:04:14;;;;;;;4.13;1.77;;;3.40;99.90;;;;;;4994687;28;20018;-83
2022/12/12 09:06:39;;;;;;;0.50;0.50;;;3.40;99.90;;;;;;4994731;28;20026;-87
2022/12/12 09:09:05;;;;;;;7.28;1.65;;;3.40;99.90;;;;;;4984828;28;20090;-86
2022/12/12 09:11:36;;;;;;;0.22;0.22;;;3.40;99.90;;;;;;5005110;28;20023;-87
2022/12/12 09:14:02;;;;;;;0.68;0.68;;;3.40;99.90;;;;;;5010930;28;20014;-84
2022/12/12 09:16:28;;;;;;;3.70;1.90;;;3.40;99.90;;;;;;4994288;28;20373;-83
2022/12/12 09:18:55;;;;;;;0.80;0.80;;;3.40;99.90;;;;;;4995073;28;20026;-83
2022/12/12 09:21:21;;;;;;;0.38;0.38;;;3.40;99.90;;;;;;4992680;28;20030;-83
2022/12/12 09:23:50;;;;;;;1.08;1.08;;;3.40;99.90;;;;;;4980082;28;20046;-86
2022/12/12 09:26:16;;;;;;;1.30;1.30;;;3.40;99.90;;;;;;4993045;28;20484;-85
2022/12/12 09:28:42;;;;;;;0.52;0.52;;;3.40;99.90;;;;;;4993097;28;20045;-85
2022/12/12 09:31:10;;;;;;;1.95;1.85;;;3.40;99.90;;;;;;4975305;28;20038;-85
2022/12/12 09:33:37;;;;;;;0.45;0.45;;;3.40;99.90;;;;;;4994633;28;20090;-83
2022/12/12 09:36:06;;;;;;;1.50;1.45;;;3.40;99.90;;;;;;4975915;28;20061;-84
2022/12/12 09:38:32;;;;;;;1.05;1.05;;;3.30;99.90;;;;;;4992457;28;20477;-82
2022/12/12 09:41:10;;;;;;;2.40;2.20;;;3.30;99.90;;;;;;4992992;28;20045;-85
2022/12/12 09:44:02;;;;;;;0.20;0.20;;;3.40;99.90;;;;;;4992909;28;20030;-84
2022/12/12 09:46:39;;;;;;;0.52;0.52;;;3.40;99.90;;;;;;4990685;28;20062;-82
2022/12/12 09:49:18;;;;;;;2.40;2.30;;;3.40;99.90;;;;;;4976382;28;20022;-85
2022/12/12 09:51:47;;;;;;;5.30;2.05;;;3.40;99.90;;;;;;4998242;28;20026;-88
2022/12/12 09:54:16;;;;;;;0.30;0.30;;;3.30;99.90;;;;;;4995443;28;20366;-87
2022/12/12 09:56:49;;;;;;;1.80;1.70;;;3.30;99.90;;;;;;4993722;28;20058;-86
2022/12/12 09:59:31;;;;;;;0.30;0.30;;;3.40;99.90;;;;;;4993226;28;20034;-85
2022/12/12 10:02:19;;;;;;;1.08;1.08;;;3.40;99.90;;;;;;4988315;28;20022;-85
2022/12/12 10:05:11;;;;;;;0.20;0.20;;;3.50;99.90;;;;;;4994438;28;20493;-86
2022/12/12 10:07:41;;;;;;;0.40;0.40;;;3.40;99.90;;;;;;4989982;28;20031;-84
2022/12/12 10:10:24;;;;;;;2.40;2.05;;;3.40;99.90;;;;;;4993387;28;20027;-84
2022/12/12 10:12:51;;;;;;;1.95;1.45;;;3.40;99.90;;;;;;4966876;28;20538;-84
2022/12/12 10:16:06;;;;;;;1.73;1.63;;;3.40;99.90;;;;;;4975788;28;20519;-86
2022/12/12 10:18:44;;;;;;;1.55;1.45;;;3.50;99.90;;;;;;4962587;28;20027;-83
2022/12/12 10:21:23;;;;;;;1.98;1.90;;;3.50;99.90;;;;;;4993885;28;20113;-85
2022/12/12 10:24:00;;;;;;;0.15;0.15;;;3.40;99.90;;;;;;4996687;28;20034;-84
2022/12/12 10:26:28;;;;;;;1.58;1.55;;;3.40;99.90;;;;;;4993346;28;20027;-84
2022/12/12 10:29:19;;;;;;;0.20;0.20;;;3.40;99.90;;;;;;4996097;28;20105;-86
2022/12/12 10:32:06;;;;;;;2.05;1.95;;;3.50;99.90;;;;;;4976788;28;20117;-83
2022/12/12 10:35:14;;;;;;;0.50;0.50;;;3.40;99.90;;;;;;4979664;28;20101;-84
2022/12/12 10:38:01;;;;;;;2.55;2.35;;;3.40;99.90;;;;;;4889011;29;20738;-85
2022/12/12 10:41:02;;;;;;;1.15;1.13;;;3.40;99.90;;;;;;4902491;29;20132;-85
2022/12/12 10:43:30;;;;;;;1.83;1.73;;;3.40;99.90;;;;;;4861217;29;20038;-83
2022/12/12 10:46:24;;;;;;;0.30;0.30;;;3.40;99.90;;;;;;4896664;29;20048;-84
2022/12/12 10:48:50;;;;;;;0.63;0.63;;;3.40;99.90;;;;;;4901760;29;20039;-84
2022/12/12 10:51:19;;;;;;;0.57;0.57;;;3.40;99.90;;;;;;4903081;29;20039;-86
2022/12/12 10:53:46;;;;;;;0.38;0.38;;;3.50;99.90;;;;;;4895297;29;20104;-87
2022/12/12 10:56:20;;;;;;;2.13;1.95;;;3.50;99.90;;;;;;4891859;29;20045;-86
2022/12/12 10:58:55;;;;;;;0.55;0.55;;;3.40;99.90;;;;;;4897873;29;20044;-86
2022/12/12 11:01:30;;;;;;;2.80;2.60;;;3.40;99.90;;;;;;4887357;29;20549;-87
2022/12/12 11:03:59;;;;;;;1.15;1.15;;;3.40;99.90;;;;;;4906805;29;20063;-85
2022/12/12 11:06:34;;;;;;;2.08;0.98;;;3.40;99.90;;;;;;4899882;29;20028;-88
2022/12/12 11:09:20;;;;;;;1.98;0.73;;;3.40;99.90;;;;;;4974269;28;20411;-87
2022/12/12 11:12:08;;;;;;;0.80;0.80;;;3.40;99.90;;;;;;4997930;28;20046;-85
2022/12/12 11:14:44;;;;;;;1.08;0.90;;;3.40;99.90;;;;;;5000663;28;20022;-86
2022/12/12 11:17:19;;;;;;;1.75;1.65;;;3.40;99.90;;;;;;5006992;28;20094;-86
2022/12/12 11:19:45;;;;;;;0.80;0.80;;;3.40;99.90;;;;;;4999232;28;20042;-86
2022/12/12 11:22:13;;;;;;;1.70;1.60;;;3.40;99.90;;;;;;4978550;28;20384;-85
2022/12/12 11:24:46;;;;;;;1.55;1.45;;;3.40;99.90;;;;;;4997181;28;20022;-85
2022/12/12 11:27:23;;;;;;;1.67;1.58;;;3.40;99.90;;;;;;4979621;28;20443;-87
2022/12/12 11:29:57;;;;;;;2.47;2.38;;;3.40;99.90;;;;;;4996593;28;20062;-84
2022/12/12 11:32:36;;;;;;;0.70;0.70;;;3.40;99.90;;;;;;4998328;28;20023;-88
2022/12/12 11:35:06;;;;;;;0.55;0.45;;;3.40;99.90;;;;;;4990765;28;20026;-90
2022/12/12 11:37:45;;;;;;;1.10;1.10;;;3.40;99.90;;;;;;4979998;28;20081;-88
2022/12/12 11:40:28;;;;;;;0.70;0.70;;;3.40;99.90;;;;;;4993179;28;20124;-85
2022/12/12 11:43:24;;;;;;;0.93;0.90;;;3.40;99.90;;;;;;4994684;28;20054;-86
2022/12/12 11:46:23;;;;;;;1.88;1.77;;;3.40;99.90;;;;;;4994020;28;20086;-85
2022/12/12 11:48:51;;;;;;;3.05;2.78;;;3.40;99.90;;;;;;4976090;28;20050;-85
2022/12/12 11:51:32;;;;;;;3.67;3.40;;;3.40;99.90;;;;;;5004146;28;20026;-86
2022/12/12 11:54:03;;;;;;;3.03;2.83;;;3.40;99.90;;;;;;4996467;28;20117;-84
2022/12/12 11:56:57;;;;;;;0.30;0.30;;;3.40;99.90;;;;;;4992441;28;20026;-86
2022/12/12 11:59:47;;;;;;;0.30;0.30;;;3.40;99.90;;;;;;4998653;28;20436;-86
2022/12/12 12:02:29;;;;;;;1.45;1.08;;;3.40;99.90;;;;;;4973115;28;20026;-90
2022/12/12 12:05:23;;;;;;;0.45;0.45;;;3.40;99.90;;;;;;4958002;28;20022;-92
2022/12/12 12:08:10;;;;;;;2.40;2.20;;;3.40;99.90;;;;;;4980771;28;20030;-90
2022/12/12 12:10:42;;;;;;;0.50;0.50;;;3.30;99.90;;;;;;5002705;28;20054;-86
2022/12/12 12:13:28;;;;;;;0.43;0.43;;;3.30;99.90;;;;;;5014790;28;20041;-90
2022/12/12 12:16:29;;;;;;;0.43;0.43;;;3.30;99.90;;;;;;4982178;28;20072;-86
2022/12/12 12:19:18;;;;;;;0.20;0.20;;;3.30;99.90;;;;;;4996020;28;20050;-87
2022/12/12 12:22:16;;;;;;;0.65;0.65;;;3.40;99.90;;;;;;4977260;28;20034;-86
2022/12/12 12:24:58;;;;;;;1.42;1.33;;;3.40;99.90;;;;;;4926913;28;20543;-84
2022/12/12 12:27:39;;;;;;;2.67;2.00;;;3.40;99.90;;;;;;4996279;28;20476;-86
2022/12/12 12:30:11;;;;;;;1.73;1.70;;;3.40;99.90;;;;;;4990962;28;20027;-87
2022/12/12 12:33:10;;;;;;;0.17;0.17;;;3.40;99.90;;;;;;4998577;28;20538;-90
2022/12/12 12:36:04;;;;;;;0.20;0.20;;;3.40;99.90;;;;;;4987669;28;20042;-87
2022/12/12 12:39:11;;;;;;;0.95;0.95;;;3.30;99.90;;;;;;4994070;28;20030;-87
2022/12/12 12:41:55;;;;;;;1.27;1.27;;;3.30;99.90;;;;;;4956006;28;20058;-87
2022/12/12 12:44:28;;;;;;;0.30;0.30;;;3.30;99.90;;;;;;4993569;28;20050;-89
2022/12/12 12:47:13;;;;;;;2.22;2.17;;;3.20;99.90;;;;;;4977138;28;20080;-87
2022/12/12 12:49:46;;;;;;;0.17;0.17;;;3.30;99.90;;;;;;4995707;28;20121;-89
2022/12/12 12:52:23;;;;;;;1.27;1.10;;;3.20;99.90;;;;;;4995186;28;20427;-89
2022/12/12 12:54:56;;;;;;;0.57;0.57;;;3.20;99.90;;;;;;4977659;28;20102;-87
2022/12/12 12:57:44;;;;;;;0.68;0.65;;;3.20;99.90;;;;;;4986241;28;20038;-87
2022/12/12 13:00:22;;;;;;;1.20;1.20;;;3.10;99.90;;;;;;4981076;28;20042;-88
2022/12/12 13:02:57;;;;;;;0.10;0.10;;;3.20;99.90;;;;;;5000840;28;20018;-90
2022/12/12 13:05:42;;;;;;;1.40;1.30;;;3.10;99.90;;;;;;5001220;28;20022;-87
2022/12/12 13:08:56;;;;;;;0.57;0.57;;;3.10;99.90;;;;;;4985483;28;20090;-87
2022/12/12 13:11:43;;;;;;;0.45;0.45;;;3.10;99.90;;;;;;4956249;28;20069;-88
2022/12/12 13:14:15;;;;;;;0.40;0.40;;;3.20;99.90;;;;;;5003231;28;20053;-88
2022/12/12 13:16:43;;;;;;;0.43;0.43;;;3.10;99.90;;;;;;4987359;28;20066;-87
2022/12/12 13:19:15;;;;;;;0.10;0.10;;;3.10;99.90;;;;;;5009204;28;20063;-87
2022/12/12 13:22:06;;;;;;;1.02;1.02;;;3.00;99.90;;;;;;4981878;28;20492;-87
2022/12/12 13:24:47;;;;;;;0.10;0.10;;;3.10;99.90;;;;;;4994462;28;20022;-87
2022/12/12 13:27:47;;;;;;;0.10;0.10;;;3.10;99.90;;;;;;4977041;28;20189;-86
2022/12/12 13:30:38;;;;;;;0.13;0.13;;;3.00;99.90;;;;;;4978955;28;20038;-86
2022/12/12 13:33:39;;;;;;;0.08;0.08;;;3.00;99.90;;;;;;4987714;28;20479;-90
2022/12/12 13:36:12;;;;;;;0.75;0.75;;;3.00;99.90;;;;;;4995506;28;20018;-87